createdAt,value
2019-04-19T00:00:38.401Z,0.00
2019-04-19T00:01:45.052Z,0.00
2019-04-19T00:02:43.693Z,0.00
2019-04-19T00:03:40.753Z,0.00
2019-04-19T00:04:48.486Z,0.00
2019-04-19T00:05:42.961Z,0.00
2019-04-19T00:06:42.449Z,0.00
2019-04-19T00:07:46.863Z,0.00
2019-04-19T00:09:01.511Z,0.00
2019-04-19T00:09:50.054Z,0.00
2019-04-19T00:10:49.519Z,0.00
2019-04-19T00:11:47.746Z,0.00
2019-04-19T00:12:48.661Z,0.00
2019-04-19T00:13:43.035Z,0.00
2019-04-19T00:14:42.356Z,0.00
2019-04-19T00:15:43.470Z,0.00
2019-04-19T00:16:42.827Z,0.00
2019-04-19T00:17:43.941Z,0.00
2019-04-19T00:19:02.385Z,0.00
2019-04-19T00:20:05.073Z,0.00
2019-04-19T00:21:03.025Z,0.00
2019-04-19T00:22:10.604Z,0.00
2019-04-19T00:22:59.379Z,0.00
2019-04-19T00:23:48.349Z,0.00
2019-04-19T00:24:45.841Z,0.00
2019-04-19T00:25:45.428Z,0.00
2019-04-19T00:26:46.722Z,0.00
2019-04-19T00:27:52.484Z,0.00
2019-04-19T00:28:53.709Z,0.00
2019-04-19T00:29:54.644Z,0.00
2019-04-19T00:30:58.062Z,0.00
2019-04-19T00:32:04.705Z,0.00
2019-04-19T00:33:02.629Z,0.00
2019-04-19T00:33:51.465Z,0.00
2019-04-19T00:34:48.448Z,0.00
2019-04-19T00:35:49.521Z,0.00
2019-04-19T00:36:48.896Z,0.00
2019-04-19T00:37:53.200Z,0.00
2019-04-19T00:39:06.227Z,0.00
2019-04-19T00:40:07.861Z,0.00
2019-04-19T00:41:09.295Z,0.00
2019-04-19T00:42:10.382Z,0.00
2019-04-19T00:43:06.489Z,0.00
2019-04-19T00:44:04.163Z,0.00
2019-04-19T00:45:08.002Z,0.00
2019-04-19T00:46:14.675Z,0.00
2019-04-19T00:47:10.820Z,0.00
2019-04-19T00:48:02.962Z,0.00
2019-04-19T00:49:05.544Z,0.00
2019-04-19T00:50:07.704Z,0.00
2019-04-19T00:51:04.987Z,0.00
2019-04-19T00:52:05.465Z,0.00
2019-04-19T00:53:09.240Z,0.00
2019-04-19T00:54:06.309Z,0.00
2019-04-19T00:55:04.302Z,0.00
2019-04-19T00:56:04.492Z,0.00
2019-04-19T00:57:01.553Z,0.00
2019-04-19T00:58:04.020Z,0.00
2019-04-19T00:59:01.935Z,0.00
2019-04-19T00:59:56.888Z,0.00
2019-04-19T01:00:59.435Z,0.00
2019-04-19T01:02:04.732Z,0.00
2019-04-19T01:02:59.455Z,0.00
2019-04-19T01:03:57.466Z,0.00
2019-04-19T01:05:03.679Z,0.00
2019-04-19T01:06:04.560Z,0.00
2019-04-19T01:07:00.957Z,0.00
2019-04-19T01:08:01.843Z,0.00
2019-04-19T01:09:15.416Z,0.00
2019-04-19T01:10:15.408Z,0.00
2019-04-19T01:11:12.874Z,0.00
2019-04-19T01:12:10.725Z,0.00
2019-04-19T01:13:11.109Z,0.00
2019-04-19T01:14:14.021Z,0.00
2019-04-19T01:15:10.653Z,0.00
2019-04-19T01:16:08.804Z,0.00
2019-04-19T01:17:17.464Z,0.00
2019-04-19T01:18:15.370Z,0.00
2019-04-19T01:19:07.435Z,0.00
2019-04-19T01:20:06.339Z,0.00
2019-04-19T01:21:02.969Z,0.00
2019-04-19T01:22:08.166Z,0.00
2019-04-19T01:23:07.127Z,0.00
2019-04-19T01:24:04.929Z,0.00
2019-04-19T01:25:10.476Z,0.00
2019-04-19T01:26:05.883Z,0.00
2019-04-19T01:27:02.654Z,0.00
2019-04-19T01:28:08.814Z,0.00
2019-04-19T01:29:08.460Z,0.00
2019-04-19T01:30:03.412Z,0.00
2019-04-19T01:31:10.123Z,0.00
2019-04-19T01:32:08.715Z,0.00
2019-04-19T01:33:05.426Z,0.00
2019-04-19T01:34:10.996Z,0.00
2019-04-19T01:35:09.227Z,0.00
2019-04-19T01:36:04.250Z,0.00
2019-04-19T01:37:11.305Z,0.00
2019-04-19T01:38:06.661Z,0.00
2019-04-19T01:39:17.920Z,0.00
2019-04-19T01:40:16.769Z,0.00
2019-04-19T01:41:20.774Z,0.00
2019-04-19T01:42:24.757Z,0.00
2019-04-19T01:43:23.884Z,0.00
2019-04-19T01:44:24.040Z,0.00
2019-04-19T01:45:20.090Z,0.00
2019-04-19T01:46:19.053Z,0.00
2019-04-19T01:47:29.377Z,0.00
2019-04-19T01:48:24.693Z,0.00
2019-04-19T01:49:12.862Z,0.00
2019-04-19T01:50:17.351Z,0.00
2019-04-19T01:51:21.293Z,0.00
2019-04-19T01:52:18.236Z,0.00
2019-04-19T01:53:25.347Z,0.00
2019-04-19T01:54:26.734Z,0.00
2019-04-19T01:55:18.013Z,0.00
2019-04-19T01:56:13.186Z,0.00
2019-04-19T01:57:11.498Z,0.00
2019-04-19T01:58:13.983Z,0.00
2019-04-19T01:59:09.334Z,0.00
2019-04-19T02:00:11.871Z,0.00
2019-04-19T02:01:16.544Z,0.00
2019-04-19T02:02:15.557Z,0.00
2019-04-19T02:03:11.072Z,0.00
2019-04-19T02:04:16.768Z,0.00
2019-04-19T02:05:15.975Z,0.00
2019-04-19T02:06:14.693Z,0.00
2019-04-19T02:07:18.087Z,0.00
2019-04-19T02:08:14.386Z,0.00
2019-04-19T02:09:24.582Z,0.00
2019-04-19T02:10:22.351Z,0.00
2019-04-19T02:11:26.851Z,0.00
2019-04-19T02:12:26.091Z,0.00
2019-04-19T02:13:23.185Z,0.00
2019-04-19T02:14:19.196Z,0.00
2019-04-19T02:15:19.458Z,0.00
2019-04-19T02:16:18.462Z,0.00
2019-04-19T02:17:16.507Z,0.00
2019-04-19T02:18:21.885Z,0.00
2019-04-19T02:20:15.819Z,0.00
2019-04-19T02:21:21.324Z,0.00
2019-04-19T02:22:21.130Z,0.00
2019-04-19T02:23:17.235Z,0.00
2019-04-19T02:24:14.735Z,0.00
2019-04-19T02:25:21.429Z,0.00
2019-04-19T02:26:19.618Z,0.00
2019-04-19T02:28:23.078Z,0.00
2019-04-19T02:29:20.295Z,0.00
2019-04-19T02:30:29.234Z,0.00
2019-04-19T02:31:37.425Z,0.00
2019-04-19T02:32:34.016Z,0.00
2019-04-19T02:33:47.676Z,0.00
2019-04-19T02:34:41.576Z,0.00
2019-04-19T02:35:46.361Z,0.00
2019-04-19T02:36:52.130Z,0.00
2019-04-19T02:37:43.716Z,0.00
2019-04-19T02:38:46.880Z,0.00
2019-04-19T02:39:45.127Z,0.00
2019-04-19T02:41:49.733Z,0.00
2019-04-19T02:42:48.307Z,0.00
2019-04-19T02:43:54.168Z,0.00
2019-04-19T02:44:57.956Z,0.00
2019-04-19T02:46:02.227Z,0.00
2019-04-19T02:46:51.965Z,0.00
2019-04-19T02:47:44.408Z,0.00
2019-04-19T02:48:54.495Z,0.00
2019-04-19T02:51:08.632Z,0.00
2019-04-19T02:53:01.780Z,0.00
2019-04-19T02:53:47.043Z,0.00
2019-04-19T02:54:54.096Z,0.00
2019-04-19T02:55:56.344Z,0.00
2019-04-19T02:57:50.748Z,0.00
2019-04-19T02:58:53.051Z,0.00
2019-04-19T02:59:59.595Z,0.00
2019-04-19T03:01:58.691Z,0.00
2019-04-19T03:02:52.838Z,0.00
2019-04-19T03:03:50.272Z,0.00
2019-04-19T03:05:11.225Z,0.00
2019-04-19T03:05:59.336Z,0.00
2019-04-19T03:06:36.884Z,0.00
2019-04-19T03:07:26.115Z,0.00
2019-04-19T03:08:27.173Z,0.00
2019-04-19T03:09:32.923Z,0.00
2019-04-19T03:10:29.217Z,0.00
2019-04-19T03:11:45.780Z,0.00
2019-04-19T03:12:48.932Z,0.00
2019-04-19T03:13:41.164Z,0.00
2019-04-19T03:14:45.180Z,0.00
2019-04-19T03:15:59.693Z,0.00
2019-04-19T03:16:56.865Z,0.00
2019-04-19T03:17:44.529Z,0.00
2019-04-19T03:18:43.666Z,0.00
2019-04-19T03:19:44.216Z,0.00
2019-04-19T03:20:42.598Z,0.00
2019-04-19T03:21:42.959Z,0.00
2019-04-19T03:22:51.691Z,0.00
2019-04-19T03:23:45.120Z,0.00
2019-04-19T03:24:50.953Z,0.00
2019-04-19T03:25:45.245Z,0.00
2019-04-19T03:27:47.364Z,0.00
2019-04-19T03:28:40.513Z,0.00
2019-04-19T03:29:38.842Z,0.00
2019-04-19T03:31:01.544Z,0.00
2019-04-19T03:32:11.603Z,0.00
2019-04-19T03:33:04.296Z,0.00
2019-04-19T03:34:06.530Z,0.00
2019-04-19T03:35:54.010Z,0.00
2019-04-19T03:36:47.640Z,0.00
2019-04-19T03:37:56.563Z,0.00
2019-04-19T03:38:52.707Z,0.00
2019-04-19T03:40:07.210Z,0.00
2019-04-19T03:40:53.554Z,0.00
2019-04-19T03:43:10.677Z,0.00
2019-04-19T03:43:57.218Z,0.00
2019-04-19T03:45:00.376Z,1.00
2019-04-19T03:45:56.637Z,1.00
2019-04-19T03:46:59.308Z,0.00
2019-04-19T03:47:56.999Z,1.00
2019-04-19T03:48:51.884Z,2.00
2019-04-19T03:49:58.369Z,1.00
2019-04-19T03:51:00.571Z,2.00
2019-04-19T03:52:04.282Z,1.00
2019-04-19T03:52:55.758Z,3.00
2019-04-19T03:54:14.389Z,3.00
2019-04-19T03:55:00.049Z,4.00
2019-04-19T03:56:06.274Z,4.00
2019-04-19T03:56:55.107Z,4.00
2019-04-19T03:57:50.407Z,5.00
2019-04-19T03:58:41.729Z,7.00
2019-04-19T03:59:41.441Z,7.00
2019-04-19T04:00:41.141Z,9.00
2019-04-19T04:01:46.484Z,11.00
2019-04-19T04:02:45.918Z,13.00
2019-04-19T04:03:46.364Z,16.00
2019-04-19T04:04:48.168Z,18.00
2019-04-19T04:05:47.467Z,22.00
2019-04-19T04:06:45.603Z,25.00
2019-04-19T04:07:45.511Z,30.00
2019-04-19T04:08:48.530Z,35.00
2019-04-19T04:09:49.047Z,41.00
2019-04-19T04:10:46.058Z,49.00
2019-04-19T04:11:55.226Z,56.00
2019-04-19T04:12:54.665Z,66.00
2019-04-19T04:14:03.372Z,75.00
2019-04-19T04:15:00.322Z,87.00
2019-04-19T04:16:02.840Z,100.00
2019-04-19T04:16:49.000Z,115.00
2019-04-19T04:17:45.785Z,131.00
2019-04-19T04:18:47.127Z,147.00
2019-04-19T04:19:46.390Z,166.00
2019-04-19T04:20:50.943Z,185.00
2019-04-19T04:21:50.665Z,206.00
2019-04-19T04:22:48.243Z,230.00
2019-04-19T04:23:58.949Z,253.00
2019-04-19T04:24:59.579Z,280.00
2019-04-19T04:25:57.300Z,307.00
2019-04-19T04:26:59.062Z,335.00
2019-04-19T04:27:58.686Z,367.00
2019-04-19T04:28:59.488Z,398.00
2019-04-19T04:30:00.210Z,432.00
2019-04-19T04:31:00.803Z,466.00
2019-04-19T04:32:01.563Z,501.00
2019-04-19T04:33:00.495Z,538.00
2019-04-19T04:34:03.021Z,576.00
2019-04-19T04:35:08.795Z,613.00
2019-04-19T04:36:11.761Z,652.00
2019-04-19T04:37:06.382Z,691.00
2019-04-19T04:38:04.914Z,732.00
2019-04-19T04:38:53.048Z,772.00
2019-04-19T04:39:53.459Z,822.00
2019-04-19T04:40:52.853Z,868.00
2019-04-19T04:42:05.674Z,901.00
2019-04-19T04:44:13.549Z,986.00
2019-04-19T04:45:18.763Z,1032.00
2019-04-19T04:46:33.775Z,1079.00
2019-04-19T04:47:15.392Z,1124.00
2019-04-19T04:48:10.229Z,1170.00
2019-04-19T04:49:24.536Z,1217.00
2019-04-19T04:51:15.839Z,1310.00
2019-04-19T04:52:04.207Z,1358.00
2019-04-19T04:53:55.396Z,1451.00
2019-04-19T04:54:56.521Z,1501.00
2019-04-19T04:56:02.080Z,1548.00
2019-04-19T04:57:05.255Z,1594.00
2019-04-19T04:58:00.505Z,1643.00
2019-04-19T04:58:58.304Z,1691.00
2019-04-19T04:59:58.896Z,1734.00
2019-04-19T05:01:05.253Z,1780.00
2019-04-19T05:02:06.709Z,1826.00
2019-04-19T05:03:12.849Z,1871.00
2019-04-19T05:04:11.799Z,1916.00
2019-04-19T05:05:16.769Z,1963.00
2019-04-19T05:06:17.794Z,2004.00
2019-04-19T05:07:24.385Z,2050.00
2019-04-19T05:08:19.694Z,2095.00
2019-04-19T05:09:22.580Z,2137.00
2019-04-19T05:10:14.801Z,2183.00
2019-04-19T05:11:16.602Z,2225.00
2019-04-19T05:12:18.724Z,2265.00
2019-04-19T05:13:22.495Z,2304.00
2019-04-19T05:15:24.754Z,2385.00
2019-04-19T05:16:29.456Z,2423.00
2019-04-19T05:17:33.248Z,2462.00
2019-04-19T05:19:19.835Z,2542.00
2019-04-19T05:20:21.149Z,2581.00
2019-04-19T05:22:18.211Z,2659.00
2019-04-19T05:23:19.705Z,2696.00
2019-04-19T05:24:22.099Z,2736.00
2019-04-19T05:25:31.333Z,2771.00
2019-04-19T05:26:37.444Z,2808.00
2019-04-19T05:27:27.968Z,2844.00
2019-04-19T05:28:21.396Z,2881.00
2019-04-19T05:29:18.507Z,2917.00
2019-04-19T05:30:04.586Z,2954.00
2019-04-19T05:31:09.078Z,2986.00
2019-04-19T05:32:13.352Z,3024.00
2019-04-19T05:34:32.483Z,3088.00
2019-04-19T05:35:15.681Z,3120.00
2019-04-19T05:36:26.095Z,3151.00
2019-04-19T05:37:18.646Z,3183.00
2019-04-19T05:38:22.248Z,3213.00
2019-04-19T05:39:30.362Z,3247.00
2019-04-19T05:40:24.290Z,3277.00
2019-04-19T05:41:14.694Z,3309.00
2019-04-19T05:42:21.385Z,3340.00
2019-04-19T05:43:48.753Z,3371.00
2019-04-19T05:45:40.521Z,3442.00
2019-04-19T05:46:29.903Z,3472.00
2019-04-19T05:47:23.886Z,3502.00
2019-04-19T05:48:27.616Z,3535.00
2019-04-19T05:49:25.229Z,3571.00
2019-04-19T05:50:30.532Z,3601.00
2019-04-19T05:51:33.999Z,3634.00
2019-04-19T05:52:30.064Z,3664.00
2019-04-19T05:53:19.575Z,3698.00
2019-04-19T05:54:12.400Z,3731.00
2019-04-19T05:55:10.318Z,3766.00
2019-04-19T05:56:09.697Z,3797.00
2019-04-19T05:57:31.019Z,3836.00
2019-04-19T05:58:20.262Z,3862.00
2019-04-19T05:59:17.378Z,3885.00
2019-04-19T06:00:25.948Z,3914.00
2019-04-19T06:01:30.420Z,3943.00
2019-04-19T06:02:21.847Z,3964.00
2019-04-19T06:03:21.164Z,3995.00
2019-04-19T06:04:32.324Z,4016.00
2019-04-19T06:05:36.666Z,4044.00
2019-04-19T06:06:37.559Z,4068.00
2019-04-19T06:07:31.766Z,4095.00
2019-04-19T06:08:21.009Z,4116.00
2019-04-19T06:09:13.797Z,4142.00
2019-04-19T06:10:14.628Z,4168.00
2019-04-19T06:11:16.124Z,4192.00
2019-04-19T06:12:19.725Z,4216.00
2019-04-19T06:13:17.103Z,4241.00
2019-04-19T06:14:41.027Z,4268.00
2019-04-19T06:15:45.127Z,4290.00
2019-04-19T06:16:36.420Z,4317.00
2019-04-19T06:17:30.840Z,4347.00
2019-04-19T06:18:29.279Z,4370.00
2019-04-19T06:19:35.364Z,4390.00
2019-04-19T06:20:33.978Z,4417.00
2019-04-19T06:21:32.686Z,4448.00
2019-04-19T06:22:35.432Z,4467.00
2019-04-19T06:23:40.021Z,4489.00
2019-04-19T06:24:36.851Z,4511.00
2019-04-19T06:25:47.719Z,4549.00
2019-04-19T06:26:53.765Z,4577.00
2019-04-19T06:27:52.898Z,4594.00
2019-04-19T06:28:44.160Z,4604.00
2019-04-19T06:29:45.049Z,4629.00
2019-04-19T06:30:41.471Z,4664.00
2019-04-19T06:31:39.611Z,4678.00
2019-04-19T06:32:40.000Z,4699.00
2019-04-19T06:33:38.783Z,4722.00
2019-04-19T06:34:36.270Z,4748.00
2019-04-19T06:35:32.593Z,4778.00
2019-04-19T06:36:20.997Z,4804.00
2019-04-19T06:37:24.730Z,4826.00
2019-04-19T06:38:22.540Z,4843.00
2019-04-19T06:39:22.611Z,4869.00
2019-04-19T06:40:26.530Z,4892.00
2019-04-19T06:41:25.459Z,4922.00
2019-04-19T06:42:31.935Z,4950.00
2019-04-19T06:43:36.274Z,4984.00
2019-04-19T06:44:47.426Z,5007.00
2019-04-19T06:45:42.084Z,5032.00
2019-04-19T06:46:31.793Z,5058.00
2019-04-19T06:47:32.020Z,5081.00
2019-04-19T06:48:26.987Z,5095.00
2019-04-19T06:49:27.701Z,5117.00
2019-04-19T06:50:30.102Z,5161.00
2019-04-19T06:51:32.788Z,5197.00
2019-04-19T06:52:29.393Z,5257.00
2019-04-19T06:53:31.043Z,5306.00
2019-04-19T06:54:33.076Z,5355.00
2019-04-19T06:55:31.725Z,5399.00
2019-04-19T06:56:31.765Z,5423.00
2019-04-19T06:57:32.333Z,5454.00
2019-04-19T06:58:32.748Z,5489.00
2019-04-19T06:59:41.962Z,5527.00
2019-04-19T07:00:42.503Z,5600.00
2019-04-19T07:01:36.519Z,5689.00
2019-04-19T07:02:28.397Z,5744.00
2019-04-19T07:03:27.895Z,5791.00
2019-04-19T07:04:27.735Z,5814.00
2019-04-19T07:05:40.334Z,5829.00
2019-04-19T07:06:43.021Z,5840.00
2019-04-19T07:07:50.760Z,5826.00
2019-04-19T07:09:02.801Z,5806.00
2019-04-19T07:09:52.425Z,5808.00
2019-04-19T07:10:56.239Z,5846.00
2019-04-19T07:11:51.719Z,5889.00
2019-04-19T07:12:46.834Z,5914.00
2019-04-19T07:13:40.532Z,5934.00
2019-04-19T07:14:33.703Z,5947.00
2019-04-19T07:15:55.308Z,5982.00
2019-04-19T07:16:54.112Z,6014.00
2019-04-19T07:17:47.367Z,6040.00
2019-04-19T07:18:44.960Z,6080.00
2019-04-19T07:19:52.852Z,6124.00
2019-04-19T07:20:48.605Z,6133.00
2019-04-19T07:21:46.940Z,6163.00
2019-04-19T07:22:49.414Z,6201.00
2019-04-19T07:24:58.394Z,6294.00
2019-04-19T07:26:02.527Z,6329.00
2019-04-19T07:26:56.631Z,6354.00
2019-04-19T07:27:47.744Z,6406.00
2019-04-19T07:28:37.227Z,6457.00
2019-04-19T07:29:35.738Z,6505.00
2019-04-19T07:30:35.036Z,6536.00
2019-04-19T07:31:36.931Z,6571.00
2019-04-19T07:32:43.854Z,6624.00
2019-04-19T07:33:47.477Z,6642.00
2019-04-19T07:34:52.998Z,6672.00
2019-04-19T07:36:00.919Z,6702.00
2019-04-19T07:36:59.460Z,6707.00
2019-04-19T07:37:58.841Z,6736.00
2019-04-19T07:38:57.542Z,6747.00
2019-04-19T07:40:55.549Z,6461.00
2019-04-19T07:42:02.042Z,6350.00
2019-04-19T07:42:56.541Z,6716.00
2019-04-19T07:43:51.344Z,8111.00
2019-04-19T07:44:46.032Z,10172.00
2019-04-19T07:46:03.934Z,65536.00
2019-04-19T07:46:59.336Z,65536.00
2019-04-19T07:47:48.920Z,65536.00
2019-04-19T07:48:39.112Z,65536.00
2019-04-19T07:49:49.514Z,65536.00
2019-04-19T07:51:52.085Z,65536.00
2019-04-19T07:53:46.292Z,65536.00
2019-04-19T07:54:42.291Z,65536.00
2019-04-19T07:55:54.965Z,65536.00
2019-04-19T07:56:51.771Z,65536.00
2019-04-19T07:58:16.442Z,65536.00
2019-04-19T07:59:07.878Z,65536.00
2019-04-19T08:00:15.167Z,65536.00
2019-04-19T08:02:12.945Z,65536.00
2019-04-19T08:03:11.256Z,17554.00
2019-04-19T08:05:10.845Z,8029.00
2019-04-19T08:06:09.989Z,7588.00
2019-04-19T08:08:17.805Z,7359.00
2019-04-19T08:09:13.650Z,7320.00
2019-04-19T08:10:08.953Z,7274.00
2019-04-19T08:11:16.945Z,7260.00
2019-04-19T08:13:21.613Z,7236.00
2019-04-19T08:15:15.344Z,7194.00
2019-04-19T08:17:40.449Z,7192.00
2019-04-19T08:28:02.580Z,7338.00
2019-04-19T08:28:58.994Z,7377.00
2019-04-19T08:29:58.009Z,7431.00
2019-04-19T08:30:55.905Z,7450.00
2019-04-19T08:31:52.790Z,7488.00
2019-04-19T08:32:51.958Z,7541.00
2019-04-19T08:33:53.067Z,7583.00
2019-04-19T08:34:58.598Z,7641.00
2019-04-19T08:35:56.166Z,7674.00
2019-04-19T08:36:58.602Z,7715.00
2019-04-19T08:38:02.468Z,7756.00
2019-04-19T08:39:13.967Z,7808.00
2019-04-19T08:40:16.036Z,7850.00
2019-04-19T08:41:09.064Z,7873.00
2019-04-19T08:42:16.198Z,7902.00
2019-04-19T08:43:17.372Z,7914.00
2019-04-19T08:44:16.788Z,7939.00
2019-04-19T08:45:01.746Z,7960.00
2019-04-19T08:45:56.244Z,7878.00
2019-04-19T08:46:57.738Z,7741.00
2019-04-19T08:48:06.544Z,7870.00
2019-04-19T08:49:02.358Z,10500.00
2019-04-19T08:50:02.667Z,65536.00
2019-04-19T08:50:58.463Z,65536.00
2019-04-19T08:51:59.936Z,65536.00
2019-04-19T08:53:07.642Z,65536.00
2019-04-19T08:54:23.075Z,65536.00
2019-04-19T08:55:19.331Z,65536.00
2019-04-19T08:56:11.620Z,65536.00
2019-04-19T08:57:07.449Z,65536.00
2019-04-19T08:58:07.157Z,65536.00
2019-04-19T08:59:33.148Z,65536.00
2019-04-19T09:00:25.982Z,65536.00
2019-04-19T09:01:28.097Z,65536.00
2019-04-19T09:02:22.076Z,65536.00
2019-04-19T09:03:17.277Z,65536.00
2019-04-19T09:04:20.743Z,65536.00
2019-04-19T09:05:18.359Z,65536.00
2019-04-19T09:08:24.030Z,65536.00
2019-04-19T09:09:28.198Z,65536.00
2019-04-19T09:10:48.336Z,65536.00
2019-04-19T09:11:21.013Z,65536.00
2019-04-19T09:12:21.176Z,65536.00
2019-04-19T09:13:37.883Z,65536.00
2019-04-19T09:14:24.588Z,65536.00
2019-04-19T09:15:20.302Z,8884.00
2019-04-19T09:16:20.590Z,8037.00
2019-04-19T09:17:24.635Z,7929.00
2019-04-19T09:19:35.856Z,8055.00
2019-04-19T09:20:28.047Z,8422.00
2019-04-19T09:21:23.000Z,65536.00
2019-04-19T09:22:24.300Z,65536.00
2019-04-19T09:23:20.246Z,65536.00
2019-04-19T09:24:09.998Z,65536.00
2019-04-19T09:25:19.076Z,65536.00
2019-04-19T09:26:23.523Z,65536.00
2019-04-19T09:27:33.982Z,65536.00
2019-04-19T09:28:37.873Z,65536.00
2019-04-19T09:29:29.010Z,65536.00
2019-04-19T09:30:27.677Z,65536.00
2019-04-19T09:31:31.886Z,65536.00
2019-04-19T09:32:23.693Z,65536.00
2019-04-19T09:33:18.314Z,65536.00
2019-04-19T09:34:19.754Z,65536.00
2019-04-19T09:35:12.837Z,65536.00
2019-04-19T09:36:13.807Z,65536.00
2019-04-19T09:37:20.022Z,65536.00
2019-04-19T09:38:28.914Z,65536.00
2019-04-19T09:39:25.410Z,65536.00
2019-04-19T09:40:27.483Z,65536.00
2019-04-19T09:41:23.692Z,65536.00
2019-04-19T09:43:31.028Z,65536.00
2019-04-19T09:44:25.819Z,65536.00
2019-04-19T09:45:15.117Z,65536.00
2019-04-19T09:46:21.183Z,65536.00
2019-04-19T09:47:14.301Z,65536.00
2019-04-19T09:48:36.331Z,65536.00
2019-04-19T09:49:32.205Z,65536.00
2019-04-19T09:50:36.594Z,65536.00
2019-04-19T09:51:33.919Z,65536.00
2019-04-19T09:52:54.106Z,65536.00
2019-04-19T09:53:44.769Z,65536.00
2019-04-19T09:54:38.862Z,65536.00
2019-04-19T09:55:40.167Z,65536.00
2019-04-19T09:56:29.137Z,65536.00
2019-04-19T09:57:41.395Z,65536.00
2019-04-19T09:58:36.856Z,65536.00
2019-04-19T09:59:27.169Z,65536.00
2019-04-19T10:00:22.453Z,65536.00
2019-04-19T10:01:21.227Z,65536.00
2019-04-19T10:02:25.329Z,65536.00
2019-04-19T10:03:30.640Z,65536.00
2019-04-19T10:04:17.011Z,65536.00
2019-04-19T10:05:17.036Z,65536.00
2019-04-19T10:06:23.046Z,65536.00
2019-04-19T10:07:18.756Z,65536.00
2019-04-19T10:08:17.700Z,65536.00
2019-04-19T10:09:23.755Z,65536.00
2019-04-19T10:10:20.788Z,65536.00
2019-04-19T10:11:19.214Z,65536.00
2019-04-19T10:12:21.784Z,65536.00
2019-04-19T10:13:23.624Z,65536.00
2019-04-19T10:27:19.201Z,65536.00
2019-04-19T10:27:31.687Z,65536.00
2019-04-19T10:28:32.246Z,65536.00
2019-04-19T10:29:38.065Z,65536.00
2019-04-19T10:30:32.865Z,65536.00
2019-04-19T10:31:33.683Z,65536.00
2019-04-19T10:32:34.881Z,65536.00
2019-04-19T10:33:41.273Z,65536.00
2019-04-19T10:34:34.572Z,65536.00
2019-04-19T10:35:35.602Z,65536.00
2019-04-19T10:36:36.404Z,65536.00
2019-04-19T10:37:35.746Z,65536.00
2019-04-19T10:38:35.868Z,65536.00
2019-04-19T10:39:35.779Z,65536.00
2019-04-19T10:40:36.097Z,65536.00
2019-04-19T10:41:36.650Z,65536.00
2019-04-19T10:42:39.016Z,65536.00
2019-04-19T10:43:43.314Z,65536.00
2019-04-19T10:44:38.199Z,65536.00
2019-04-19T10:45:38.319Z,65536.00
2019-04-19T10:46:38.621Z,65536.00
2019-04-19T10:47:38.178Z,65536.00
2019-04-19T10:48:38.935Z,65536.00
2019-04-19T10:49:44.873Z,65536.00
2019-04-19T10:50:44.310Z,65536.00
2019-04-19T10:51:39.693Z,65536.00
2019-04-19T10:52:39.602Z,65536.00
2019-04-19T10:53:39.873Z,65536.00
2019-04-19T10:54:41.187Z,65536.00
2019-04-19T10:55:40.872Z,65536.00
2019-04-19T10:56:41.038Z,65536.00
2019-04-19T10:57:41.226Z,65536.00
2019-04-19T10:58:42.755Z,65536.00
2019-04-19T10:59:42.659Z,65536.00
2019-04-19T11:00:42.995Z,65536.00
2019-04-19T11:01:43.176Z,65536.00
2019-04-19T11:02:42.486Z,65536.00
2019-04-19T11:03:42.760Z,65536.00
2019-04-19T11:04:42.988Z,65536.00
2019-04-19T11:05:43.233Z,65536.00
2019-04-19T11:06:43.350Z,65536.00
2019-04-19T11:07:43.769Z,65536.00
2019-04-19T11:08:44.597Z,65536.00
2019-04-19T11:09:44.128Z,65536.00
2019-04-19T11:10:45.449Z,65536.00
2019-04-19T11:11:45.601Z,65536.00
2019-04-19T11:12:45.006Z,65536.00
2019-04-19T11:13:45.741Z,65536.00
2019-04-19T11:14:46.170Z,65536.00
2019-04-19T11:15:46.636Z,65536.00
2019-04-19T11:16:45.509Z,65536.00
2019-04-19T11:17:45.773Z,65536.00
2019-04-19T11:18:46.239Z,65536.00
2019-04-19T11:20:02.263Z,65536.00
2019-04-19T11:20:50.448Z,65536.00
2019-04-19T11:21:47.693Z,65536.00
2019-04-19T11:22:48.118Z,65536.00
2019-04-19T11:23:47.681Z,65536.00
2019-04-19T11:24:48.051Z,65536.00
2019-04-19T11:25:50.928Z,65536.00
2019-04-19T11:26:48.729Z,65536.00
2019-04-19T11:27:51.257Z,65536.00
2019-04-19T11:28:49.353Z,65536.00
2019-04-19T11:29:52.863Z,65536.00
2019-04-19T11:30:50.814Z,65536.00
2019-04-19T11:31:50.318Z,65536.00
2019-04-19T11:32:51.031Z,65536.00
2019-04-19T11:33:50.993Z,65536.00
2019-04-19T11:34:51.429Z,65536.00
2019-04-19T11:35:53.075Z,65536.00
2019-04-19T11:36:51.970Z,65536.00
2019-04-19T11:37:53.187Z,65536.00
2019-04-19T11:38:52.308Z,65536.00
2019-04-19T11:39:53.052Z,65536.00
2019-04-19T11:40:53.297Z,65536.00
2019-04-19T11:41:52.958Z,65536.00
2019-04-19T11:42:53.189Z,65536.00
2019-04-19T11:43:53.718Z,65536.00
2019-04-19T11:44:54.084Z,65536.00
2019-04-19T11:45:54.064Z,65536.00
2019-04-19T11:46:54.331Z,65536.00
2019-04-19T11:47:55.406Z,65536.00
2019-04-19T11:48:55.459Z,65536.00
2019-04-19T11:49:55.567Z,65536.00
2019-04-19T11:50:55.988Z,65536.00
2019-04-19T11:51:55.981Z,65536.00
2019-04-19T11:52:56.221Z,65536.00
2019-04-19T11:53:56.830Z,65536.00
2019-04-19T11:54:57.101Z,65536.00
2019-04-19T11:55:58.296Z,65536.00
2019-04-19T11:57:02.429Z,65536.00
2019-04-19T11:57:58.737Z,65536.00
2019-04-19T11:58:58.335Z,65536.00
2019-04-19T11:59:59.397Z,65536.00
2019-04-19T12:01:00.135Z,65536.00
2019-04-19T12:01:59.886Z,65536.00
2019-04-19T12:03:00.183Z,65536.00
2019-04-19T12:04:00.495Z,65536.00
2019-04-19T12:05:12.018Z,65536.00
2019-04-19T12:06:00.399Z,65536.00
2019-04-19T12:07:02.718Z,65536.00
2019-04-19T12:08:00.806Z,65536.00
2019-04-19T12:09:02.601Z,65536.00
2019-04-19T12:10:02.946Z,65536.00
2019-04-19T12:11:02.226Z,65536.00
2019-04-19T12:12:01.750Z,65536.00
2019-04-19T12:13:03.434Z,65536.00
2019-04-19T12:14:03.780Z,65536.00
2019-04-19T12:15:02.489Z,65536.00
2019-04-19T12:16:03.115Z,65536.00
2019-04-19T12:17:02.892Z,65536.00
2019-04-19T12:18:02.646Z,65536.00
2019-04-19T12:19:04.345Z,65536.00
2019-04-19T12:20:05.821Z,65536.00
2019-04-19T12:21:05.023Z,65536.00
2019-04-19T12:22:05.285Z,65536.00
2019-04-19T12:23:04.236Z,65536.00
2019-04-19T12:24:04.708Z,65536.00
2019-04-19T12:25:05.746Z,65536.00
2019-04-19T12:26:06.011Z,65536.00
2019-04-19T12:27:05.475Z,65536.00
2019-04-19T12:28:05.864Z,65536.00
2019-04-19T12:29:07.381Z,65536.00
2019-04-19T12:30:07.529Z,65536.00
2019-04-19T12:31:07.390Z,65536.00
2019-04-19T12:32:07.599Z,65536.00
2019-04-19T12:33:07.404Z,65536.00
2019-04-19T12:34:09.668Z,65536.00
2019-04-19T12:35:08.868Z,65536.00
2019-04-19T12:36:08.245Z,65536.00
2019-04-19T12:37:09.128Z,65536.00
2019-04-19T12:38:10.155Z,65536.00
2019-04-19T12:39:09.498Z,65536.00
2019-04-19T12:40:10.829Z,65536.00
2019-04-19T12:41:10.170Z,65536.00
2019-04-19T12:42:11.269Z,65536.00
2019-04-19T12:43:11.893Z,65536.00
2019-04-19T12:44:11.093Z,65536.00
2019-04-19T12:45:13.234Z,65536.00
2019-04-19T12:46:12.800Z,65536.00
2019-04-19T12:47:12.961Z,65536.00
2019-04-19T12:48:12.224Z,65536.00
2019-04-19T12:49:12.614Z,65536.00
2019-04-19T12:50:14.636Z,65536.00
2019-04-19T12:51:14.149Z,65536.00
2019-04-19T12:52:13.556Z,65536.00
2019-04-19T12:53:13.303Z,65536.00
2019-04-19T12:54:14.141Z,65536.00
2019-04-19T12:55:15.350Z,65536.00
2019-04-19T12:56:18.022Z,65536.00
2019-04-19T12:57:16.047Z,65536.00
2019-04-19T12:58:15.468Z,65536.00
2019-04-19T12:59:18.120Z,65536.00
2019-04-19T13:00:16.197Z,65536.00
2019-04-19T13:01:15.199Z,65536.00
2019-04-19T13:02:15.823Z,65536.00
2019-04-19T13:03:16.230Z,65536.00
2019-04-19T13:04:16.511Z,65536.00
2019-04-19T13:05:18.237Z,65536.00
2019-04-19T13:06:17.580Z,65536.00
2019-04-19T13:07:17.444Z,65536.00
2019-04-19T13:08:18.934Z,65536.00
2019-04-19T13:09:19.123Z,65536.00
2019-04-19T13:10:18.488Z,65536.00
2019-04-19T13:11:18.871Z,65536.00
2019-04-19T13:12:19.146Z,65536.00
2019-04-19T13:13:19.510Z,65536.00
2019-04-19T13:14:19.889Z,65536.00
2019-04-19T13:15:20.169Z,65536.00
2019-04-19T13:16:22.116Z,65536.00
2019-04-19T13:17:20.692Z,65536.00
2019-04-19T13:18:22.364Z,65536.00